Terminal Aerodrome Forecast
Issued by NWS Cleveland, OH

Home | Current Version | Previous Version | Graphics & Text | Print | Product List | Glossary Off
Versions: 1 2 3 4 5 6 7 8 9 10 11 12 13 14 15 16 17 18 19

000
FTUS41 KCLE 221900 AAA
TAFCAK
TAF AMD
KCAK 221903Z 2219/2318 32014G22KT P6SM OVC012
     FM222200 30012KT P6SM SCT012 BKN035
      TEMPO 2300/2304 BKN012
     FM230400 31012KT 6SM BR SCT006 OVC012
      TEMPO 2304/2308 4SM -RA BR BKN006
     FM230800 32011KT 6SM HZ BKN006 OVC035
     FM231300 32012KT P6SM SCT012 BKN025
     FM231600 32015G25KT P6SM SCT050=

USA.gov is the U.S. government's official web portal to all federal, state and local government web resources and services.